sensor_id;sensor_type;location;lat;lon;timestamp;P1;durP1;ratioP1;P2;durP2;ratioP2
52412;SDS011;38339;53.234;6.578;2022-07-11T00:02:07;8.75;;;4.93;;
52412;SDS011;38339;53.234;6.578;2022-07-11T00:04:34;7.88;;;4.97;;
52412;SDS011;38339;53.234;6.578;2022-07-11T00:07:00;7.30;;;5.05;;
52412;SDS011;38339;53.234;6.578;2022-07-11T00:09:27;11.43;;;5.60;;
52412;SDS011;38339;53.234;6.578;2022-07-11T00:11:53;11.65;;;5.47;;
52412;SDS011;38339;53.234;6.578;2022-07-11T00:14:20;11.73;;;6.18;;
52412;SDS011;38339;53.234;6.578;2022-07-11T00:16:46;11.02;;;5.78;;
52412;SDS011;38339;53.234;6.578;2022-07-11T00:19:16;10.98;;;5.50;;
52412;SDS011;38339;53.234;6.578;2022-07-11T00:21:42;9.60;;;6.00;;
52412;SDS011;38339;53.234;6.578;2022-07-11T00:24:07;10.02;;;5.68;;
52412;SDS011;38339;53.234;6.578;2022-07-11T00:26:34;14.05;;;5.82;;
52412;SDS011;38339;53.234;6.578;2022-07-11T00:29:00;10.05;;;5.78;;
52412;SDS011;38339;53.234;6.578;2022-07-11T00:31:26;11.30;;;5.68;;
52412;SDS011;38339;53.234;6.578;2022-07-11T00:33:52;9.27;;;5.80;;
52412;SDS011;38339;53.234;6.578;2022-07-11T00:36:19;9.82;;;5.22;;
52412;SDS011;38339;53.234;6.578;2022-07-11T00:38:44;9.27;;;5.22;;
52412;SDS011;38339;53.234;6.578;2022-07-11T00:41:11;8.88;;;5.18;;
52412;SDS011;38339;53.234;6.578;2022-07-11T00:43:37;6.55;;;4.63;;
52412;SDS011;38339;53.234;6.578;2022-07-11T00:46:04;8.52;;;5.47;;
52412;SDS011;38339;53.234;6.578;2022-07-11T00:48:32;11.50;;;5.50;;
52412;SDS011;38339;53.234;6.578;2022-07-11T00:50:58;7.60;;;5.53;;
52412;SDS011;38339;53.234;6.578;2022-07-11T00:53:24;11.68;;;5.88;;
52412;SDS011;38339;53.234;6.578;2022-07-11T00:55:51;11.63;;;6.50;;
52412;SDS011;38339;53.234;6.578;2022-07-11T00:58:18;11.35;;;6.53;;
52412;SDS011;38339;53.234;6.578;2022-07-11T01:00:44;11.57;;;6.72;;
52412;SDS011;38339;53.234;6.578;2022-07-11T01:03:10;8.80;;;6.57;;
52412;SDS011;38339;53.234;6.578;2022-07-11T01:05:36;8.35;;;6.03;;
52412;SDS011;38339;53.234;6.578;2022-07-11T01:08:02;9.32;;;6.13;;
52412;SDS011;38339;53.234;6.578;2022-07-11T01:10:28;9.98;;;5.88;;
52412;SDS011;38339;53.234;6.578;2022-07-11T01:12:54;10.45;;;5.70;;
52412;SDS011;38339;53.234;6.578;2022-07-11T01:15:20;8.20;;;5.28;;
52412;SDS011;38339;53.234;6.578;2022-07-11T01:17:46;7.43;;;4.90;;
52412;SDS011;38339;53.234;6.578;2022-07-11T01:20:12;8.15;;;5.18;;
52412;SDS011;38339;53.234;6.578;2022-07-11T01:22:44;7.70;;;5.05;;
52412;SDS011;38339;53.234;6.578;2022-07-11T01:25:16;6.55;;;4.50;;
52412;SDS011;38339;53.234;6.578;2022-07-11T01:27:58;7.78;;;4.65;;
52412;SDS011;38339;53.234;6.578;2022-07-11T01:30:28;13.38;;;5.13;;
52412;SDS011;38339;53.234;6.578;2022-07-11T01:32:56;7.10;;;5.15;;
52412;SDS011;38339;53.234;6.578;2022-07-11T01:35:22;8.82;;;5.35;;
52412;SDS011;38339;53.234;6.578;2022-07-11T01:37:48;7.43;;;5.13;;
52412;SDS011;38339;53.234;6.578;2022-07-11T01:40:14;7.97;;;5.07;;
52412;SDS011;38339;53.234;6.578;2022-07-11T01:42:40;8.50;;;5.47;;
52412;SDS011;38339;53.234;6.578;2022-07-11T01:45:06;10.63;;;6.18;;
52412;SDS011;38339;53.234;6.578;2022-07-11T01:47:33;9.13;;;5.63;;
52412;SDS011;38339;53.234;6.578;2022-07-11T01:49:59;8.30;;;5.40;;
52412;SDS011;38339;53.234;6.578;2022-07-11T01:52:24;10.52;;;6.05;;
52412;SDS011;38339;53.234;6.578;2022-07-11T01:54:51;12.65;;;5.70;;
52412;SDS011;38339;53.234;6.578;2022-07-11T01:57:17;7.40;;;5.30;;
52412;SDS011;38339;53.234;6.578;2022-07-11T01:59:43;9.70;;;5.45;;
52412;SDS011;38339;53.234;6.578;2022-07-11T02:02:09;6.25;;;4.88;;
52412;SDS011;38339;53.234;6.578;2022-07-11T02:04:34;9.88;;;5.35;;
52412;SDS011;38339;53.234;6.578;2022-07-11T02:07:00;11.50;;;5.25;;
52412;SDS011;38339;53.234;6.578;2022-07-11T02:09:25;8.95;;;5.32;;
52412;SDS011;38339;53.234;6.578;2022-07-11T02:11:51;7.97;;;5.20;;
52412;SDS011;38339;53.234;6.578;2022-07-11T02:14:17;8.73;;;4.72;;
52412;SDS011;38339;53.234;6.578;2022-07-11T02:16:43;8.63;;;5.00;;
52412;SDS011;38339;53.234;6.578;2022-07-11T02:19:08;8.18;;;4.68;;
52412;SDS011;38339;53.234;6.578;2022-07-11T02:21:36;7.22;;;4.57;;
52412;SDS011;38339;53.234;6.578;2022-07-11T02:24:02;7.43;;;4.20;;
52412;SDS011;38339;53.234;6.578;2022-07-11T02:26:28;8.23;;;4.78;;
52412;SDS011;38339;53.234;6.578;2022-07-11T02:28:54;7.40;;;4.55;;
52412;SDS011;38339;53.234;6.578;2022-07-11T02:31:20;8.77;;;4.35;;
52412;SDS011;38339;53.234;6.578;2022-07-11T02:33:46;6.60;;;4.18;;
52412;SDS011;38339;53.234;6.578;2022-07-11T02:36:12;7.00;;;3.90;;
52412;SDS011;38339;53.234;6.578;2022-07-11T02:38:37;5.25;;;3.55;;
52412;SDS011;38339;53.234;6.578;2022-07-11T02:41:03;8.45;;;4.45;;
52412;SDS011;38339;53.234;6.578;2022-07-11T02:43:29;8.40;;;3.83;;
52412;SDS011;38339;53.234;6.578;2022-07-11T02:45:55;6.57;;;4.30;;
52412;SDS011;38339;53.234;6.578;2022-07-11T02:48:21;6.95;;;4.10;;
52412;SDS011;38339;53.234;6.578;2022-07-11T02:50:47;8.65;;;4.32;;
52412;SDS011;38339;53.234;6.578;2022-07-11T02:53:13;10.02;;;4.63;;
52412;SDS011;38339;53.234;6.578;2022-07-11T02:55:38;14.30;;;5.20;;
52412;SDS011;38339;53.234;6.578;2022-07-11T02:58:04;9.88;;;4.80;;
52412;SDS011;38339;53.234;6.578;2022-07-11T03:00:30;7.57;;;4.53;;
52412;SDS011;38339;53.234;6.578;2022-07-11T03:02:56;9.23;;;4.63;;
52412;SDS011;38339;53.234;6.578;2022-07-11T03:05:22;8.55;;;4.72;;
52412;SDS011;38339;53.234;6.578;2022-07-11T03:07:48;10.68;;;4.25;;
52412;SDS011;38339;53.234;6.578;2022-07-11T03:10:14;12.80;;;4.60;;
52412;SDS011;38339;53.234;6.578;2022-07-11T03:12:39;10.68;;;3.92;;
52412;SDS011;38339;53.234;6.578;2022-07-11T03:15:06;7.82;;;3.63;;
52412;SDS011;38339;53.234;6.578;2022-07-11T03:17:33;6.50;;;3.67;;
52412;SDS011;38339;53.234;6.578;2022-07-11T03:20:00;9.48;;;3.63;;
52412;SDS011;38339;53.234;6.578;2022-07-11T03:22:27;6.32;;;3.42;;
52412;SDS011;38339;53.234;6.578;2022-07-11T03:24:53;5.20;;;3.30;;
52412;SDS011;38339;53.234;6.578;2022-07-11T03:27:18;4.10;;;2.78;;
52412;SDS011;38339;53.234;6.578;2022-07-11T03:29:45;3.60;;;2.38;;
52412;SDS011;38339;53.234;6.578;2022-07-11T03:32:11;4.88;;;2.30;;
52412;SDS011;38339;53.234;6.578;2022-07-11T03:34:37;3.65;;;2.50;;
52412;SDS011;38339;53.234;6.578;2022-07-11T03:37:03;3.83;;;2.60;;
52412;SDS011;38339;53.234;6.578;2022-07-11T03:39:29;6.80;;;2.25;;
52412;SDS011;38339;53.234;6.578;2022-07-11T03:41:54;5.93;;;2.55;;
52412;SDS011;38339;53.234;6.578;2022-07-11T03:44:20;5.50;;;2.30;;
52412;SDS011;38339;53.234;6.578;2022-07-11T03:46:46;5.63;;;2.30;;
52412;SDS011;38339;53.234;6.578;2022-07-11T03:49:12;4.38;;;2.20;;
52412;SDS011;38339;53.234;6.578;2022-07-11T03:51:39;4.65;;;2.60;;
52412;SDS011;38339;53.234;6.578;2022-07-11T03:54:05;5.50;;;2.40;;
52412;SDS011;38339;53.234;6.578;2022-07-11T03:56:31;6.75;;;2.80;;
52412;SDS011;38339;53.234;6.578;2022-07-11T03:58:57;4.13;;;2.60;;
52412;SDS011;38339;53.234;6.578;2022-07-11T04:01:22;6.50;;;3.25;;
52412;SDS011;38339;53.234;6.578;2022-07-11T04:03:48;6.22;;;3.17;;
52412;SDS011;38339;53.234;6.578;2022-07-11T04:06:14;6.22;;;3.20;;
52412;SDS011;38339;53.234;6.578;2022-07-11T04:08:40;5.40;;;2.90;;
52412;SDS011;38339;53.234;6.578;2022-07-11T04:11:06;7.15;;;2.88;;
52412;SDS011;38339;53.234;6.578;2022-07-11T04:13:32;5.72;;;2.80;;
52412;SDS011;38339;53.234;6.578;2022-07-11T04:15:58;5.07;;;2.80;;
52412;SDS011;38339;53.234;6.578;2022-07-11T04:18:23;5.78;;;2.53;;
52412;SDS011;38339;53.234;6.578;2022-07-11T04:20:49;4.32;;;2.50;;
52412;SDS011;38339;53.234;6.578;2022-07-11T04:23:15;6.32;;;2.47;;
52412;SDS011;38339;53.234;6.578;2022-07-11T04:25:42;8.32;;;2.22;;
52412;SDS011;38339;53.234;6.578;2022-07-11T04:28:07;5.00;;;2.28;;
52412;SDS011;38339;53.234;6.578;2022-07-11T04:30:33;4.05;;;2.05;;
52412;SDS011;38339;53.234;6.578;2022-07-11T04:32:59;3.67;;;2.10;;
52412;SDS011;38339;53.234;6.578;2022-07-11T04:35:25;3.20;;;1.70;;
52412;SDS011;38339;53.234;6.578;2022-07-11T04:37:55;4.45;;;1.77;;
52412;SDS011;38339;53.234;6.578;2022-07-11T04:40:21;3.08;;;1.90;;
52412;SDS011;38339;53.234;6.578;2022-07-11T04:42:49;3.70;;;1.70;;
52412;SDS011;38339;53.234;6.578;2022-07-11T04:45:17;3.53;;;1.80;;
52412;SDS011;38339;53.234;6.578;2022-07-11T04:47:43;6.93;;;1.90;;
52412;SDS011;38339;53.234;6.578;2022-07-11T04:50:08;4.18;;;2.00;;
52412;SDS011;38339;53.234;6.578;2022-07-11T04:52:34;2.65;;;1.70;;
52412;SDS011;38339;53.234;6.578;2022-07-11T04:55:00;3.20;;;1.70;;
52412;SDS011;38339;53.234;6.578;2022-07-11T04:57:26;2.83;;;1.60;;
52412;SDS011;38339;53.234;6.578;2022-07-11T04:59:52;2.15;;;1.50;;
52412;SDS011;38339;53.234;6.578;2022-07-11T05:02:17;3.33;;;1.52;;
52412;SDS011;38339;53.234;6.578;2022-07-11T05:04:44;2.35;;;1.63;;
52412;SDS011;38339;53.234;6.578;2022-07-11T05:07:10;4.28;;;1.60;;
52412;SDS011;38339;53.234;6.578;2022-07-11T05:09:38;5.38;;;1.83;;
52412;SDS011;38339;53.234;6.578;2022-07-11T05:12:05;4.38;;;1.80;;
52412;SDS011;38339;53.234;6.578;2022-07-11T05:14:31;3.72;;;1.65;;
52412;SDS011;38339;53.234;6.578;2022-07-11T05:16:57;2.80;;;1.52;;
52412;SDS011;38339;53.234;6.578;2022-07-11T05:19:23;2.75;;;1.52;;
52412;SDS011;38339;53.234;6.578;2022-07-11T05:21:48;2.03;;;1.45;;
52412;SDS011;38339;53.234;6.578;2022-07-11T05:24:14;3.60;;;1.55;;
52412;SDS011;38339;53.234;6.578;2022-07-11T05:26:43;4.30;;;1.20;;
52412;SDS011;38339;53.234;6.578;2022-07-11T05:29:09;3.83;;;1.48;;
52412;SDS011;38339;53.234;6.578;2022-07-11T05:31:35;1.98;;;1.23;;
52412;SDS011;38339;53.234;6.578;2022-07-11T05:34:01;1.20;;;1.08;;
52412;SDS011;38339;53.234;6.578;2022-07-11T05:36:27;2.08;;;1.25;;
52412;SDS011;38339;53.234;6.578;2022-07-11T05:38:52;3.67;;;1.20;;
52412;SDS011;38339;53.234;6.578;2022-07-11T05:41:18;3.42;;;1.20;;
52412;SDS011;38339;53.234;6.578;2022-07-11T05:43:44;1.95;;;1.02;;
52412;SDS011;38339;53.234;6.578;2022-07-11T05:46:09;0.90;;;0.90;;
52412;SDS011;38339;53.234;6.578;2022-07-11T05:48:35;2.22;;;1.02;;
52412;SDS011;38339;53.234;6.578;2022-07-11T05:51:01;3.15;;;1.10;;
52412;SDS011;38339;53.234;6.578;2022-07-11T05:53:26;2.72;;;1.20;;
52412;SDS011;38339;53.234;6.578;2022-07-11T05:55:53;2.25;;;1.15;;
52412;SDS011;38339;53.234;6.578;2022-07-11T05:58:19;2.25;;;1.10;;
52412;SDS011;38339;53.234;6.578;2022-07-11T06:00:46;2.15;;;1.10;;
52412;SDS011;38339;53.234;6.578;2022-07-11T06:03:12;1.58;;;1.00;;
52412;SDS011;38339;53.234;6.578;2022-07-11T06:05:37;1.67;;;1.02;;
52412;SDS011;38339;53.234;6.578;2022-07-11T06:08:03;2.40;;;1.20;;
52412;SDS011;38339;53.234;6.578;2022-07-11T06:10:48;1.38;;;1.10;;
52412;SDS011;38339;53.234;6.578;2022-07-11T06:13:14;3.20;;;1.23;;
52412;SDS011;38339;53.234;6.578;2022-07-11T06:15:39;1.98;;;1.10;;
52412;SDS011;38339;53.234;6.578;2022-07-11T06:18:05;1.38;;;1.05;;
52412;SDS011;38339;53.234;6.578;2022-07-11T06:20:31;1.88;;;1.30;;
52412;SDS011;38339;53.234;6.578;2022-07-11T06:22:57;3.95;;;1.70;;
52412;SDS011;38339;53.234;6.578;2022-07-11T06:25:22;3.88;;;1.52;;
52412;SDS011;38339;53.234;6.578;2022-07-11T06:27:48;3.35;;;1.45;;
52412;SDS011;38339;53.234;6.578;2022-07-11T06:30:14;3.78;;;1.35;;
52412;SDS011;38339;53.234;6.578;2022-07-11T06:32:39;4.75;;;3.20;;
52412;SDS011;38339;53.234;6.578;2022-07-11T06:35:05;4.03;;;2.22;;
52412;SDS011;38339;53.234;6.578;2022-07-11T06:37:32;1.42;;;1.20;;
52412;SDS011;38339;53.234;6.578;2022-07-11T06:39:58;3.75;;;1.30;;
52412;SDS011;38339;53.234;6.578;2022-07-11T06:42:24;3.25;;;1.20;;
52412;SDS011;38339;53.234;6.578;2022-07-11T06:44:49;3.40;;;1.30;;
52412;SDS011;38339;53.234;6.578;2022-07-11T06:47:15;4.32;;;1.20;;
52412;SDS011;38339;53.234;6.578;2022-07-11T06:49:40;1.63;;;1.10;;
52412;SDS011;38339;53.234;6.578;2022-07-11T06:52:06;2.28;;;1.30;;
52412;SDS011;38339;53.234;6.578;2022-07-11T06:54:32;2.55;;;1.40;;
52412;SDS011;38339;53.234;6.578;2022-07-11T06:56:57;3.20;;;1.35;;
52412;SDS011;38339;53.234;6.578;2022-07-11T06:59:23;2.63;;;1.38;;
52412;SDS011;38339;53.234;6.578;2022-07-11T07:01:49;2.35;;;1.23;;
52412;SDS011;38339;53.234;6.578;2022-07-11T07:04:14;1.98;;;1.10;;
52412;SDS011;38339;53.234;6.578;2022-07-11T07:06:46;2.50;;;1.23;;
52412;SDS011;38339;53.234;6.578;2022-07-11T07:09:12;2.67;;;1.20;;
52412;SDS011;38339;53.234;6.578;2022-07-11T07:11:41;1.70;;;1.27;;
52412;SDS011;38339;53.234;6.578;2022-07-11T07:14:08;2.15;;;1.10;;
52412;SDS011;38339;53.234;6.578;2022-07-11T07:16:33;2.40;;;1.33;;
52412;SDS011;38339;53.234;6.578;2022-07-11T07:19:00;1.88;;;1.13;;
52412;SDS011;38339;53.234;6.578;2022-07-11T07:21:26;1.95;;;1.27;;
52412;SDS011;38339;53.234;6.578;2022-07-11T07:23:51;1.63;;;1.30;;
52412;SDS011;38339;53.234;6.578;2022-07-11T07:26:17;1.33;;;1.20;;
52412;SDS011;38339;53.234;6.578;2022-07-11T07:28:42;3.10;;;1.42;;
52412;SDS011;38339;53.234;6.578;2022-07-11T07:31:08;2.00;;;1.20;;
52412;SDS011;38339;53.234;6.578;2022-07-11T07:33:36;1.70;;;1.23;;
52412;SDS011;38339;53.234;6.578;2022-07-11T07:36:02;1.63;;;1.20;;
52412;SDS011;38339;53.234;6.578;2022-07-11T07:38:28;1.75;;;1.13;;
52412;SDS011;38339;53.234;6.578;2022-07-11T07:40:54;3.20;;;1.10;;
52412;SDS011;38339;53.234;6.578;2022-07-11T07:43:19;2.10;;;1.10;;
52412;SDS011;38339;53.234;6.578;2022-07-11T07:45:45;1.08;;;0.90;;
52412;SDS011;38339;53.234;6.578;2022-07-11T07:48:11;4.63;;;0.93;;
52412;SDS011;38339;53.234;6.578;2022-07-11T07:50:36;2.03;;;0.85;;
52412;SDS011;38339;53.234;6.578;2022-07-11T07:53:02;1.50;;;0.98;;
52412;SDS011;38339;53.234;6.578;2022-07-11T07:55:27;1.08;;;0.80;;
52412;SDS011;38339;53.234;6.578;2022-07-11T07:57:53;1.00;;;0.90;;
52412;SDS011;38339;53.234;6.578;2022-07-11T08:00:19;0.82;;;0.70;;
52412;SDS011;38339;53.234;6.578;2022-07-11T08:03:06;1.27;;;1.00;;
52412;SDS011;38339;53.234;6.578;2022-07-11T08:05:34;1.27;;;0.90;;
52412;SDS011;38339;53.234;6.578;2022-07-11T08:08:00;2.00;;;0.85;;
52412;SDS011;38339;53.234;6.578;2022-07-11T08:10:26;2.72;;;1.00;;
52412;SDS011;38339;53.234;6.578;2022-07-11T08:12:52;2.00;;;1.00;;
52412;SDS011;38339;53.234;6.578;2022-07-11T08:15:17;1.90;;;0.90;;
52412;SDS011;38339;53.234;6.578;2022-07-11T08:17:43;0.73;;;0.70;;
52412;SDS011;38339;53.234;6.578;2022-07-11T08:20:09;1.48;;;0.82;;
52412;SDS011;38339;53.234;6.578;2022-07-11T08:22:35;1.73;;;0.90;;
52412;SDS011;38339;53.234;6.578;2022-07-11T08:25:01;3.03;;;0.90;;
52412;SDS011;38339;53.234;6.578;2022-07-11T08:27:26;1.45;;;1.10;;
52412;SDS011;38339;53.234;6.578;2022-07-11T08:29:52;1.17;;;0.90;;
52412;SDS011;38339;53.234;6.578;2022-07-11T08:32:18;2.53;;;0.80;;
52412;SDS011;38339;53.234;6.578;2022-07-11T08:34:46;1.50;;;0.90;;
52412;SDS011;38339;53.234;6.578;2022-07-11T08:37:12;1.13;;;1.00;;
52412;SDS011;38339;53.234;6.578;2022-07-11T08:39:38;1.13;;;0.80;;
52412;SDS011;38339;53.234;6.578;2022-07-11T08:42:03;1.23;;;1.00;;
52412;SDS011;38339;53.234;6.578;2022-07-11T08:44:29;2.20;;;1.35;;
52412;SDS011;38339;53.234;6.578;2022-07-11T08:46:55;0.90;;;0.90;;
52412;SDS011;38339;53.234;6.578;2022-07-11T08:49:22;1.27;;;0.80;;
52412;SDS011;38339;53.234;6.578;2022-07-11T08:51:48;3.80;;;1.00;;
52412;SDS011;38339;53.234;6.578;2022-07-11T08:54:14;1.77;;;0.70;;
52412;SDS011;38339;53.234;6.578;2022-07-11T08:56:40;1.00;;;0.82;;
52412;SDS011;38339;53.234;6.578;2022-07-11T08:59:09;0.70;;;0.70;;
52412;SDS011;38339;53.234;6.578;2022-07-11T09:01:38;1.30;;;0.90;;
52412;SDS011;38339;53.234;6.578;2022-07-11T09:04:09;1.35;;;0.80;;
52412;SDS011;38339;53.234;6.578;2022-07-11T09:06:35;1.27;;;1.00;;
52412;SDS011;38339;53.234;6.578;2022-07-11T09:09:01;0.85;;;0.80;;
52412;SDS011;38339;53.234;6.578;2022-07-11T09:11:27;0.90;;;0.70;;
52412;SDS011;38339;53.234;6.578;2022-07-11T09:13:54;0.73;;;0.73;;
52412;SDS011;38339;53.234;6.578;2022-07-11T09:16:19;1.10;;;0.85;;
52412;SDS011;38339;53.234;6.578;2022-07-11T09:18:45;1.17;;;0.80;;
52412;SDS011;38339;53.234;6.578;2022-07-11T09:21:15;0.90;;;0.80;;
52412;SDS011;38339;53.234;6.578;2022-07-11T09:24:00;1.65;;;0.80;;
52412;SDS011;38339;53.234;6.578;2022-07-11T09:26:50;4.28;;;1.10;;
52412;SDS011;38339;53.234;6.578;2022-07-11T09:31:46;1.70;;;0.90;;
52412;SDS011;38339;53.234;6.578;2022-07-11T09:39:19;2.83;;;0.88;;
52412;SDS011;38339;53.234;6.578;2022-07-11T09:41:49;1.85;;;0.90;;
52412;SDS011;38339;53.234;6.578;2022-07-11T09:46:46;1.00;;;0.90;;
52412;SDS011;38339;53.234;6.578;2022-07-11T09:49:30;3.22;;;2.42;;
52412;SDS011;38339;53.234;6.578;2022-07-11T09:52:05;1.42;;;0.80;;
52412;SDS011;38339;53.234;6.578;2022-07-11T09:54:51;0.80;;;0.70;;
52412;SDS011;38339;53.234;6.578;2022-07-11T09:57:38;0.82;;;0.80;;
52412;SDS011;38339;53.234;6.578;2022-07-11T10:00:07;1.08;;;0.90;;
52412;SDS011;38339;53.234;6.578;2022-07-11T10:02:34;1.95;;;0.98;;
52412;SDS011;38339;53.234;6.578;2022-07-11T10:05:01;2.03;;;1.00;;
52412;SDS011;38339;53.234;6.578;2022-07-11T10:07:28;1.55;;;1.02;;
52412;SDS011;38339;53.234;6.578;2022-07-11T10:09:54;1.98;;;1.20;;
52412;SDS011;38339;53.234;6.578;2022-07-11T10:12:20;1.90;;;1.10;;
52412;SDS011;38339;53.234;6.578;2022-07-11T10:14:48;1.23;;;1.13;;
52412;SDS011;38339;53.234;6.578;2022-07-11T10:17:21;1.13;;;1.00;;
52412;SDS011;38339;53.234;6.578;2022-07-11T10:20:02;4.13;;;1.10;;
52412;SDS011;38339;53.234;6.578;2022-07-11T10:25:22;1.48;;;1.10;;
52412;SDS011;38339;53.234;6.578;2022-07-11T10:28:10;3.28;;;1.20;;
52412;SDS011;38339;53.234;6.578;2022-07-11T10:30:48;1.85;;;1.05;;
52412;SDS011;38339;53.234;6.578;2022-07-11T10:33:20;1.45;;;0.90;;
52412;SDS011;38339;53.234;6.578;2022-07-11T10:35:48;1.70;;;1.13;;
52412;SDS011;38339;53.234;6.578;2022-07-11T10:38:18;2.63;;;1.30;;
52412;SDS011;38339;53.234;6.578;2022-07-11T10:40:49;1.65;;;1.00;;
52412;SDS011;38339;53.234;6.578;2022-07-11T10:46:09;1.75;;;1.00;;
52412;SDS011;38339;53.234;6.578;2022-07-11T10:53:50;1.23;;;1.00;;
52412;SDS011;38339;53.234;6.578;2022-07-11T10:58:45;1.45;;;1.10;;
52412;SDS011;38339;53.234;6.578;2022-07-11T11:07:44;2.17;;;1.02;;
52412;SDS011;38339;53.234;6.578;2022-07-11T11:28:30;1.63;;;0.90;;
52412;SDS011;38339;53.234;6.578;2022-07-11T11:30:56;1.70;;;0.98;;
52412;SDS011;38339;53.234;6.578;2022-07-11T11:33:26;1.10;;;1.00;;
52412;SDS011;38339;53.234;6.578;2022-07-11T11:36:09;2.25;;;1.00;;
52412;SDS011;38339;53.234;6.578;2022-07-11T11:38:36;0.80;;;0.80;;
52412;SDS011;38339;53.234;6.578;2022-07-11T11:41:03;0.95;;;0.80;;
52412;SDS011;38339;53.234;6.578;2022-07-11T11:43:30;2.45;;;1.48;;
52412;SDS011;38339;53.234;6.578;2022-07-11T11:45:56;2.60;;;1.13;;
52412;SDS011;38339;53.234;6.578;2022-07-11T11:48:29;2.50;;;1.10;;
52412;SDS011;38339;53.234;6.578;2022-07-11T11:51:06;4.30;;;1.10;;
52412;SDS011;38339;53.234;6.578;2022-07-11T11:53:38;1.13;;;1.00;;
52412;SDS011;38339;53.234;6.578;2022-07-11T11:58:39;1.13;;;1.02;;
52412;SDS011;38339;53.234;6.578;2022-07-11T12:01:06;1.60;;;1.00;;
52412;SDS011;38339;53.234;6.578;2022-07-11T12:06:29;3.53;;;1.20;;
52412;SDS011;38339;53.234;6.578;2022-07-11T12:08:58;3.38;;;1.10;;
52412;SDS011;38339;53.234;6.578;2022-07-11T12:11:32;3.60;;;1.08;;
52412;SDS011;38339;53.234;6.578;2022-07-11T12:13:59;2.05;;;1.20;;
52412;SDS011;38339;53.234;6.578;2022-07-11T12:16:27;2.25;;;1.10;;
52412;SDS011;38339;53.234;6.578;2022-07-11T12:21:48;3.47;;;1.13;;
52412;SDS011;38339;53.234;6.578;2022-07-11T12:24:17;3.28;;;1.00;;
52412;SDS011;38339;53.234;6.578;2022-07-11T12:26:48;2.55;;;1.02;;
52412;SDS011;38339;53.234;6.578;2022-07-11T12:29:15;2.17;;;0.90;;
52412;SDS011;38339;53.234;6.578;2022-07-11T12:31:48;4.28;;;1.30;;
52412;SDS011;38339;53.234;6.578;2022-07-11T12:34:22;1.65;;;1.00;;
52412;SDS011;38339;53.234;6.578;2022-07-11T12:39:38;1.58;;;1.05;;
52412;SDS011;38339;53.234;6.578;2022-07-11T12:42:23;2.28;;;1.30;;
52412;SDS011;38339;53.234;6.578;2022-07-11T12:47:33;2.17;;;1.10;;
52412;SDS011;38339;53.234;6.578;2022-07-11T12:50:17;0.85;;;0.75;;
52412;SDS011;38339;53.234;6.578;2022-07-11T12:52:52;1.10;;;1.00;;
52412;SDS011;38339;53.234;6.578;2022-07-11T12:55:20;2.53;;;0.90;;
52412;SDS011;38339;53.234;6.578;2022-07-11T13:00:31;0.82;;;0.82;;
52412;SDS011;38339;53.234;6.578;2022-07-11T13:02:58;0.90;;;0.90;;
52412;SDS011;38339;53.234;6.578;2022-07-11T13:05:24;1.52;;;1.30;;
52412;SDS011;38339;53.234;6.578;2022-07-11T13:07:50;1.73;;;1.00;;
52412;SDS011;38339;53.234;6.578;2022-07-11T13:10:34;1.10;;;1.00;;
52412;SDS011;38339;53.234;6.578;2022-07-11T13:13:16;1.52;;;0.90;;
52412;SDS011;38339;53.234;6.578;2022-07-11T13:15:43;1.13;;;1.02;;
52412;SDS011;38339;53.234;6.578;2022-07-11T13:18:11;1.85;;;1.10;;
52412;SDS011;38339;53.234;6.578;2022-07-11T13:20:38;1.20;;;1.15;;
52412;SDS011;38339;53.234;6.578;2022-07-11T13:23:04;2.30;;;1.30;;
52412;SDS011;38339;53.234;6.578;2022-07-11T13:25:31;1.92;;;1.20;;
52412;SDS011;38339;53.234;6.578;2022-07-11T13:27:57;1.17;;;0.90;;
52412;SDS011;38339;53.234;6.578;2022-07-11T13:30:23;3.45;;;1.50;;
52412;SDS011;38339;53.234;6.578;2022-07-11T13:32:54;1.45;;;1.30;;
52412;SDS011;38339;53.234;6.578;2022-07-11T13:35:20;1.67;;;1.20;;
52412;SDS011;38339;53.234;6.578;2022-07-11T13:37:46;2.10;;;1.50;;
52412;SDS011;38339;53.234;6.578;2022-07-11T13:40:16;2.28;;;1.52;;
52412;SDS011;38339;53.234;6.578;2022-07-11T13:42:43;2.25;;;1.75;;
52412;SDS011;38339;53.234;6.578;2022-07-11T13:45:15;2.30;;;1.70;;
52412;SDS011;38339;53.234;6.578;2022-07-11T13:47:43;3.72;;;1.73;;
52412;SDS011;38339;53.234;6.578;2022-07-11T13:50:08;2.60;;;1.77;;
52412;SDS011;38339;53.234;6.578;2022-07-11T13:52:34;2.50;;;1.63;;
52412;SDS011;38339;53.234;6.578;2022-07-11T13:55:00;1.92;;;1.70;;
52412;SDS011;38339;53.234;6.578;2022-07-11T13:57:28;2.47;;;1.70;;
52412;SDS011;38339;53.234;6.578;2022-07-11T13:59:54;1.33;;;1.23;;
52412;SDS011;38339;53.234;6.578;2022-07-11T14:02:21;2.50;;;1.33;;
52412;SDS011;38339;53.234;6.578;2022-07-11T14:04:47;1.38;;;1.20;;
52412;SDS011;38339;53.234;6.578;2022-07-11T14:07:13;2.25;;;1.20;;
52412;SDS011;38339;53.234;6.578;2022-07-11T14:09:39;2.28;;;1.50;;
52412;SDS011;38339;53.234;6.578;2022-07-11T14:12:06;2.33;;;1.48;;
52412;SDS011;38339;53.234;6.578;2022-07-11T14:14:32;1.95;;;1.50;;
52412;SDS011;38339;53.234;6.578;2022-07-11T14:16:59;2.60;;;1.33;;
52412;SDS011;38339;53.234;6.578;2022-07-11T14:19:25;1.90;;;1.40;;
52412;SDS011;38339;53.234;6.578;2022-07-11T14:21:51;1.40;;;1.30;;
52412;SDS011;38339;53.234;6.578;2022-07-11T14:24:18;1.50;;;1.40;;
52412;SDS011;38339;53.234;6.578;2022-07-11T14:26:44;2.08;;;1.42;;
52412;SDS011;38339;53.234;6.578;2022-07-11T14:29:11;2.00;;;1.48;;
52412;SDS011;38339;53.234;6.578;2022-07-11T14:31:37;3.45;;;1.50;;
52412;SDS011;38339;53.234;6.578;2022-07-11T14:34:03;2.15;;;1.70;;
52412;SDS011;38339;53.234;6.578;2022-07-11T14:36:29;1.98;;;1.80;;
52412;SDS011;38339;53.234;6.578;2022-07-11T14:38:55;2.40;;;2.00;;
52412;SDS011;38339;53.234;6.578;2022-07-11T14:41:21;2.42;;;1.85;;
52412;SDS011;38339;53.234;6.578;2022-07-11T14:43:47;5.03;;;2.00;;
52412;SDS011;38339;53.234;6.578;2022-07-11T14:46:14;3.22;;;1.90;;
52412;SDS011;38339;53.234;6.578;2022-07-11T14:48:44;2.05;;;1.80;;
52412;SDS011;38339;53.234;6.578;2022-07-11T14:51:11;3.78;;;1.80;;
52412;SDS011;38339;53.234;6.578;2022-07-11T14:53:37;2.95;;;1.80;;
52412;SDS011;38339;53.234;6.578;2022-07-11T14:56:03;3.10;;;1.73;;
52412;SDS011;38339;53.234;6.578;2022-07-11T14:58:30;3.15;;;1.77;;
52412;SDS011;38339;53.234;6.578;2022-07-11T15:00:55;3.85;;;2.20;;
52412;SDS011;38339;53.234;6.578;2022-07-11T15:03:21;1.83;;;1.52;;
52412;SDS011;38339;53.234;6.578;2022-07-11T15:06:05;1.75;;;1.60;;
52412;SDS011;38339;53.234;6.578;2022-07-11T15:08:32;2.00;;;1.67;;
52412;SDS011;38339;53.234;6.578;2022-07-11T15:11:17;2.05;;;1.85;;
52412;SDS011;38339;53.234;6.578;2022-07-11T15:14:01;1.77;;;1.67;;
52412;SDS011;38339;53.234;6.578;2022-07-11T15:16:30;2.65;;;2.00;;
52412;SDS011;38339;53.234;6.578;2022-07-11T15:19:00;4.63;;;2.10;;
52412;SDS011;38339;53.234;6.578;2022-07-11T15:21:27;3.45;;;2.10;;
52412;SDS011;38339;53.234;6.578;2022-07-11T15:23:53;4.43;;;2.28;;
52412;SDS011;38339;53.234;6.578;2022-07-11T15:26:19;2.42;;;2.03;;
52412;SDS011;38339;53.234;6.578;2022-07-11T15:28:45;2.40;;;2.00;;
52412;SDS011;38339;53.234;6.578;2022-07-11T15:31:14;5.55;;;3.65;;
52412;SDS011;38339;53.234;6.578;2022-07-11T15:33:40;4.50;;;2.05;;
52412;SDS011;38339;53.234;6.578;2022-07-11T15:36:19;3.28;;;2.10;;
52412;SDS011;38339;53.234;6.578;2022-07-11T15:38:50;2.60;;;2.00;;
52412;SDS011;38339;53.234;6.578;2022-07-11T15:41:16;2.78;;;1.70;;
52412;SDS011;38339;53.234;6.578;2022-07-11T15:43:42;3.08;;;1.60;;
52412;SDS011;38339;53.234;6.578;2022-07-11T15:46:09;2.67;;;1.60;;
52412;SDS011;38339;53.234;6.578;2022-07-11T15:48:35;2.42;;;1.55;;
52412;SDS011;38339;53.234;6.578;2022-07-11T15:51:01;2.80;;;1.77;;
52412;SDS011;38339;53.234;6.578;2022-07-11T15:53:27;3.10;;;1.80;;
52412;SDS011;38339;53.234;6.578;2022-07-11T15:55:53;1.50;;;1.40;;